Time;durP1;ratioP1;P1;durP2;ratioP2;P2;SDS_P1;SDS_P2;PMS_P1;PMS_P2;Temp;Humidity;BMP_temperature;BMP_pressure;BME280_temperature;BME280_humidity;BME280_pressure;Samples;Min_cycle;Max_cycle;Signal;HPM_P1;HPM_P2
2022/04/24 00:00:43;;;;;;;13.65;10.30;;;16.40;73.20;;;;;;5081864;28;20115;-60
2022/04/24 00:03:08;;;;;;;13.40;10.77;;;16.30;73.20;;;;;;5064554;28;20393;-60
2022/04/24 00:05:34;;;;;;;15.90;9.68;;;16.30;73.30;;;;;;5082748;28;20622;-61
2022/04/24 00:08:00;;;;;;;11.35;9.63;;;16.30;73.40;;;;;;5064059;28;20123;-60
2022/04/24 00:10:26;;;;;;;13.98;10.43;;;16.30;73.60;;;;;;5080077;28;20155;-60
2022/04/24 00:12:51;;;;;;;12.55;10.77;;;16.30;73.70;;;;;;5063358;28;20028;-60
2022/04/24 00:15:17;;;;;;;10.90;9.80;;;16.20;73.70;;;;;;5078914;28;20301;-61
2022/04/24 00:17:42;;;;;;;12.20;10.10;;;16.20;73.70;;;;;;5083570;28;20035;-60
2022/04/24 00:20:08;;;;;;;14.98;9.73;;;16.20;73.70;;;;;;5081476;28;20040;-60
2022/04/24 00:22:34;;;;;;;12.85;9.95;;;16.20;73.80;;;;;;5064767;28;20052;-60
2022/04/24 00:24:59;;;;;;;11.98;9.70;;;16.20;73.90;;;;;;5083886;28;20371;-59
2022/04/24 00:27:25;;;;;;;11.75;10.45;;;16.20;74.00;;;;;;5047721;28;20044;-60
2022/04/24 00:29:51;;;;;;;15.90;10.52;;;16.20;74.20;;;;;;5080642;28;20967;-59
2022/04/24 00:32:16;;;;;;;13.18;11.10;;;16.10;74.30;;;;;;5080077;28;20028;-59
2022/04/24 00:34:42;;;;;;;15.50;10.27;;;16.10;74.40;;;;;;5046332;28;20123;-59
2022/04/24 00:37:08;;;;;;;14.10;11.23;;;16.10;74.40;;;;;;5042332;28;20118;-59
2022/04/24 00:39:33;;;;;;;13.00;10.98;;;16.10;74.60;;;;;;5082549;28;20035;-59
2022/04/24 00:41:59;;;;;;;12.07;10.40;;;16.10;74.80;;;;;;5065094;28;20039;-59
2022/04/24 00:44:26;;;;;;;10.93;9.82;;;16.10;75.00;;;;;;5064434;28;20020;-59
2022/04/24 00:46:57;;;;;;;9.73;8.80;;;16.10;75.00;;;;;;5062729;28;20031;-60
2022/04/24 00:49:23;;;;;;;12.75;9.13;;;16.00;75.10;;;;;;5062036;28;20046;-60
2022/04/24 00:51:48;;;;;;;12.30;9.00;;;16.00;75.00;;;;;;5081670;28;20523;-60
2022/04/24 00:54:14;;;;;;;13.65;9.52;;;15.90;75.10;;;;;;5081562;28;20410;-60
2022/04/24 00:56:40;;;;;;;9.70;8.48;;;15.90;75.10;;;;;;5081414;28;20075;-60
2022/04/24 00:59:07;;;;;;;11.65;7.68;;;15.80;75.10;;;;;;5062154;28;20024;-60
2022/04/24 01:01:32;;;;;;;9.48;7.53;;;15.80;75.10;;;;;;5062258;28;20030;-60
2022/04/24 01:04:00;;;;;;;9.18;6.90;;;15.80;75.10;;;;;;5063753;28;20111;-60
2022/04/24 01:06:27;;;;;;;11.95;7.97;;;15.70;75.30;;;;;;5063655;28;20154;-59
2022/04/24 01:08:52;;;;;;;7.80;6.72;;;15.70;75.90;;;;;;5065075;28;20023;-60
2022/04/24 01:11:18;;;;;;;8.18;7.18;;;15.70;75.30;;;;;;5065180;28;20378;-60
2022/04/24 01:13:43;;;;;;;9.07;7.10;;;15.60;75.30;;;;;;5080285;28;20186;-60
2022/04/24 01:16:09;;;;;;;7.53;6.63;;;15.60;75.30;;;;;;5076233;28;20438;-59
2022/04/24 01:18:34;;;;;;;7.10;6.07;;;15.50;75.40;;;;;;5079683;28;20028;-59
2022/04/24 01:21:09;;;;;;;8.52;7.13;;;15.50;75.30;;;;;;5079371;28;20029;-59
2022/04/24 01:23:35;;;;;;;7.80;5.97;;;15.50;75.40;;;;;;5061441;28;20107;-60
2022/04/24 01:26:00;;;;;;;8.88;5.28;;;15.50;75.40;;;;;;5081000;28;20028;-60
2022/04/24 01:28:26;;;;;;;5.20;4.70;;;15.40;75.40;;;;;;5064347;28;20028;-58
2022/04/24 01:30:51;;;;;;;6.65;5.47;;;15.40;75.30;;;;;;5079931;28;20028;-59
2022/04/24 01:33:17;;;;;;;6.07;4.55;;;15.40;75.20;;;;;;5082316;28;20040;-59
2022/04/24 01:35:42;;;;;;;7.82;4.15;;;15.40;75.10;;;;;;5080784;28;20447;-59
2022/04/24 01:38:08;;;;;;;8.30;4.45;;;15.30;75.20;;;;;;5062523;28;20027;-60
2022/04/24 01:40:33;;;;;;;4.63;4.03;;;15.30;75.10;;;;;;5060896;28;20055;-59
2022/04/24 01:42:59;;;;;;;7.40;4.85;;;15.20;75.00;;;;;;5081273;28;20036;-59
2022/04/24 01:45:24;;;;;;;6.80;3.65;;;15.20;75.20;;;;;;5059744;28;20051;-60
2022/04/24 01:47:50;;;;;;;4.18;3.30;;;15.20;75.20;;;;;;5080726;28;20040;-59
2022/04/24 01:50:15;;;;;;;4.25;3.40;;;15.10;75.00;;;;;;5077205;28;20444;-59
2022/04/24 01:52:41;;;;;;;6.25;3.85;;;15.00;75.10;;;;;;5082911;28;20024;-59
2022/04/24 01:55:06;;;;;;;4.53;3.05;;;15.00;75.10;;;;;;5083486;28;20028;-59
2022/04/24 01:57:32;;;;;;;3.70;3.05;;;15.00;75.20;;;;;;5076944;28;20043;-60
2022/04/24 01:59:57;;;;;;;3.60;3.05;;;15.00;75.10;;;;;;5060461;28;20036;-59
2022/04/24 02:02:23;;;;;;;4.63;2.85;;;14.90;75.00;;;;;;5081094;28;20031;-60
2022/04/24 02:04:48;;;;;;;6.68;3.25;;;14.90;75.00;;;;;;5078829;28;20524;-60
2022/04/24 02:07:14;;;;;;;5.03;2.60;;;14.90;75.20;;;;;;5080629;28;20161;-58
2022/04/24 02:09:40;;;;;;;3.42;2.80;;;14.80;75.10;;;;;;5080587;28;20472;-59
2022/04/24 02:12:06;;;;;;;3.30;2.75;;;14.80;75.00;;;;;;5082270;28;20043;-59
2022/04/24 02:14:32;;;;;;;4.57;2.40;;;14.80;75.00;;;;;;5081867;28;20056;-59
2022/04/24 02:16:58;;;;;;;4.68;2.67;;;14.70;74.90;;;;;;5079780;28;20120;-59
2022/04/24 02:19:24;;;;;;;3.25;2.58;;;14.70;75.00;;;;;;5064305;28;20103;-59
2022/04/24 02:21:49;;;;;;;2.60;2.33;;;14.70;75.00;;;;;;5062322;28;20024;-59
2022/04/24 02:24:15;;;;;;;6.70;2.60;;;14.70;75.10;;;;;;5079916;28;20024;-60
2022/04/24 02:26:40;;;;;;;2.53;2.17;;;14.70;74.90;;;;;;5083013;28;20052;-60
2022/04/24 02:29:06;;;;;;;5.13;2.42;;;14.70;75.00;;;;;;5065078;28;20420;-59
2022/04/24 02:31:32;;;;;;;2.42;2.00;;;14.60;74.90;;;;;;5081665;28;20032;-59
2022/04/24 02:33:57;;;;;;;2.35;1.90;;;14.60;74.80;;;;;;5083552;28;20020;-59
2022/04/24 02:36:23;;;;;;;3.33;2.08;;;14.60;74.80;;;;;;5085207;28;20008;-60
2022/04/24 02:38:48;;;;;;;2.42;2.03;;;14.60;74.80;;;;;;5086706;28;20082;-59
2022/04/24 02:41:14;;;;;;;2.97;2.03;;;14.60;74.80;;;;;;5085514;28;20070;-59
2022/04/24 02:43:39;;;;;;;2.95;2.05;;;14.50;74.80;;;;;;5086238;28;20069;-60
2022/04/24 02:46:05;;;;;;;3.13;1.60;;;14.60;74.80;;;;;;5081978;28;20051;-60
2022/04/24 02:48:30;;;;;;;2.20;1.90;;;14.50;74.70;;;;;;5063673;28;20127;-60
2022/04/24 02:50:57;;;;;;;2.47;1.90;;;14.50;74.60;;;;;;5082793;28;20565;-59
2022/04/24 02:53:23;;;;;;;1.75;1.55;;;14.50;75.30;;;;;;5049478;28;20055;-59
2022/04/24 02:55:48;;;;;;;2.03;1.50;;;14.40;74.60;;;;;;5083852;28;20099;-59
2022/04/24 02:58:14;;;;;;;2.60;2.08;;;14.40;74.50;;;;;;5082666;28;20036;-60
2022/04/24 03:00:42;;;;;;;1.77;1.58;;;14.40;74.70;;;;;;5082460;28;20107;-60
2022/04/24 03:03:08;;;;;;;1.90;1.60;;;14.40;74.60;;;;;;5066699;28;20035;-59
2022/04/24 03:05:33;;;;;;;1.88;1.33;;;14.30;74.60;;;;;;5047669;28;20328;-60
2022/04/24 03:07:59;;;;;;;2.28;1.55;;;14.30;74.70;;;;;;5085200;28;20393;-60
2022/04/24 03:10:25;;;;;;;3.00;1.60;;;14.30;74.70;;;;;;5083506;28;20371;-59
2022/04/24 03:12:51;;;;;;;1.70;1.40;;;14.30;74.60;;;;;;5048539;28;20047;-59
2022/04/24 03:15:16;;;;;;;1.38;1.27;;;14.30;74.60;;;;;;5079928;28;20078;-59
2022/04/24 03:17:42;;;;;;;1.58;1.42;;;14.30;74.60;;;;;;5066615;28;20023;-60
2022/04/24 03:20:09;;;;;;;1.60;1.50;;;14.20;74.60;;;;;;5080746;28;20672;-60
2022/04/24 03:22:34;;;;;;;2.85;1.45;;;14.20;74.60;;;;;;5050118;28;20467;-59
2022/04/24 03:25:00;;;;;;;2.45;1.40;;;14.20;74.50;;;;;;5084372;28;20031;-60
2022/04/24 03:27:26;;;;;;;1.90;1.23;;;14.20;74.70;;;;;;5067035;28;20437;-59
2022/04/24 03:29:52;;;;;;;2.03;1.40;;;14.20;74.60;;;;;;5062299;28;20420;-60
2022/04/24 03:32:17;;;;;;;2.17;1.30;;;14.20;74.60;;;;;;5082954;28;20063;-60
2022/04/24 03:34:43;;;;;;;1.42;1.30;;;14.10;74.50;;;;;;5062289;28;20036;-60
2022/04/24 03:37:08;;;;;;;1.25;1.10;;;14.10;74.50;;;;;;5047523;28;20144;-59
2022/04/24 03:39:34;;;;;;;1.20;1.10;;;14.10;74.60;;;;;;5031644;28;20134;-60
2022/04/24 03:41:59;;;;;;;1.70;1.30;;;14.10;74.70;;;;;;5082846;28;20028;-59
2022/04/24 03:44:26;;;;;;;1.20;1.10;;;14.10;74.70;;;;;;5064112;28;20035;-59
2022/04/24 03:46:51;;;;;;;1.75;1.08;;;14.00;74.60;;;;;;5082955;28;20071;-59
2022/04/24 03:49:17;;;;;;;1.63;1.20;;;14.00;74.70;;;;;;5065002;28;20478;-59
2022/04/24 03:51:43;;;;;;;1.42;1.27;;;13.90;74.70;;;;;;5083983;28;20032;-59
2022/04/24 03:54:08;;;;;;;2.10;1.30;;;14.00;74.70;;;;;;5080463;28;20024;-60
2022/04/24 03:56:34;;;;;;;2.13;1.13;;;13.90;75.40;;;;;;5064568;28;20291;-59
2022/04/24 03:59:00;;;;;;;1.25;0.95;;;13.90;74.70;;;;;;5064047;28;20131;-59
2022/04/24 04:01:25;;;;;;;2.05;1.30;;;13.90;74.70;;;;;;5079957;28;20479;-59
2022/04/24 04:03:51;;;;;;;1.38;1.27;;;13.90;74.80;;;;;;5080361;28;20032;-59
2022/04/24 04:06:17;;;;;;;2.05;1.20;;;13.90;75.40;;;;;;5077826;28;20052;-60
2022/04/24 04:08:42;;;;;;;1.63;1.30;;;13.80;74.70;;;;;;5081935;28;20135;-59
2022/04/24 04:11:08;;;;;;;2.10;1.25;;;13.80;74.70;;;;;;5064784;28;20451;-59
2022/04/24 04:13:34;;;;;;;1.20;1.10;;;13.80;74.70;;;;;;5049175;28;20452;-60
2022/04/24 04:16:00;;;;;;;1.30;1.20;;;13.80;74.70;;;;;;5080024;28;20027;-59
2022/04/24 04:18:25;;;;;;;4.38;1.25;;;13.80;74.70;;;;;;5064008;28;20024;-60
2022/04/24 04:20:51;;;;;;;1.70;0.80;;;13.80;74.70;;;;;;5081657;28;20060;-60
2022/04/24 04:23:16;;;;;;;1.98;1.10;;;13.80;74.80;;;;;;5047138;28;20109;-60
2022/04/24 04:25:42;;;;;;;1.30;0.90;;;13.80;74.80;;;;;;5061879;28;20100;-60
2022/04/24 04:28:07;;;;;;;2.17;1.10;;;13.70;74.80;;;;;;5082188;28;20083;-60
2022/04/24 04:30:33;;;;;;;1.27;1.00;;;13.70;74.80;;;;;;5079766;28;20028;-59
2022/04/24 04:32:58;;;;;;;1.80;0.95;;;13.70;74.90;;;;;;5047545;28;20040;-60
2022/04/24 04:35:24;;;;;;;1.70;1.17;;;13.70;74.90;;;;;;5080157;28;20101;-59
2022/04/24 04:37:49;;;;;;;1.42;1.23;;;13.70;74.90;;;;;;5080422;28;20040;-59
2022/04/24 04:40:16;;;;;;;1.75;1.15;;;13.70;74.90;;;;;;5063955;28;20028;-60
2022/04/24 04:42:41;;;;;;;1.27;1.17;;;13.70;74.90;;;;;;5064288;28;20438;-59
2022/04/24 04:45:07;;;;;;;18.17;2.58;;;13.70;74.90;;;;;;5079780;28;20043;-59
2022/04/24 04:47:33;;;;;;;43.63;3.90;;;13.60;74.90;;;;;;5063129;28;20063;-60
2022/04/24 04:49:58;;;;;;;97.45;9.57;;;13.60;75.00;;;;;;5062685;28;20107;-59
2022/04/24 04:52:24;;;;;;;205.63;17.60;;;13.70;75.10;;;;;;5064025;28;20032;-60
2022/04/24 04:54:49;;;;;;;291.17;22.08;;;13.60;75.10;;;;;;5083136;28;20074;-59
2022/04/24 04:57:16;;;;;;;147.15;12.85;;;13.60;75.20;;;;;;5083186;28;20027;-60
2022/04/24 04:59:41;;;;;;;219.82;17.77;;;13.70;75.20;;;;;;5064738;28;20110;-59
2022/04/24 05:02:07;;;;;;;129.55;12.35;;;13.70;75.20;;;;;;5082812;28;20142;-60
2022/04/24 05:04:32;;;;;;;115.07;11.65;;;13.60;75.20;;;;;;5063988;28;20027;-59
2022/04/24 05:06:58;;;;;;;96.78;8.25;;;13.60;75.30;;;;;;5081097;28;20055;-59
2022/04/24 05:09:24;;;;;;;62.92;7.13;;;13.60;75.30;;;;;;5080920;28;20500;-60
2022/04/24 05:11:50;;;;;;;77.55;8.07;;;13.60;75.30;;;;;;5063737;28;20082;-59
2022/04/24 05:14:15;;;;;;;74.53;7.18;;;13.60;75.40;;;;;;5082205;28;20028;-59
2022/04/24 05:16:41;;;;;;;83.90;7.22;;;13.60;75.50;;;;;;5081533;28;20078;-60
2022/04/24 05:19:07;;;;;;;85.43;7.97;;;13.60;75.60;;;;;;5064930;28;20077;-59
2022/04/24 05:21:33;;;;;;;57.55;5.85;;;13.60;75.80;;;;;;5082235;28;20024;-59
2022/04/24 05:24:00;;;;;;;47.53;6.20;;;13.60;76.10;;;;;;5083448;28;20052;-60
2022/04/24 05:26:26;;;;;;;52.97;6.28;;;13.60;76.00;;;;;;5081758;28;20019;-59
2022/04/24 05:28:51;;;;;;;52.22;5.63;;;13.50;75.90;;;;;;5080821;28;20048;-60
2022/04/24 05:31:17;;;;;;;53.47;5.75;;;13.60;76.00;;;;;;5080732;28;20450;-59
2022/04/24 05:33:42;;;;;;;37.80;4.85;;;13.60;75.90;;;;;;5080930;28;20063;-59
2022/04/24 05:36:08;;;;;;;47.60;5.63;;;13.60;75.80;;;;;;5045022;28;20059;-59
2022/04/24 05:38:33;;;;;;;41.28;4.55;;;13.60;75.90;;;;;;5061839;28;20040;-60
2022/04/24 05:40:59;;;;;;;41.75;4.40;;;13.60;75.90;;;;;;5081030;28;20047;-59
2022/04/24 05:43:24;;;;;;;45.53;5.60;;;13.60;76.20;;;;;;5083184;28;20907;-60
2022/04/24 05:45:50;;;;;;;32.20;4.45;;;13.60;76.20;;;;;;5082386;28;20082;-59
2022/04/24 05:48:18;;;;;;;34.05;4.05;;;13.60;76.10;;;;;;5082502;28;20077;-60
2022/04/24 05:50:44;;;;;;;43.13;4.57;;;13.60;76.00;;;;;;5081567;28;20508;-59
2022/04/24 05:53:09;;;;;;;35.33;3.92;;;13.60;76.00;;;;;;5081124;28;20047;-59
2022/04/24 05:55:35;;;;;;;73.75;8.88;;;13.60;76.60;;;;;;5079604;28;20102;-60
2022/04/24 05:58:00;;;;;;;70.60;6.78;;;13.60;75.90;;;;;;5045552;28;20474;-59
2022/04/24 06:00:26;;;;;;;45.25;5.45;;;13.60;75.90;;;;;;5065496;28;20455;-59
2022/04/24 06:02:52;;;;;;;30.15;4.57;;;13.60;75.90;;;;;;5083493;28;20043;-59
2022/04/24 06:05:17;;;;;;;33.78;4.65;;;13.60;75.80;;;;;;5085443;28;20047;-60
2022/04/24 06:07:43;;;;;;;39.45;4.65;;;13.60;75.80;;;;;;5085966;28;20463;-59
2022/04/24 06:10:09;;;;;;;33.85;4.20;;;13.70;76.00;;;;;;5086015;28;20123;-60
2022/04/24 06:12:47;;;;;;;35.15;4.60;;;13.60;76.00;;;;;;5068216;28;20063;-59
2022/04/24 06:15:15;;;;;;;33.05;4.35;;;13.60;76.20;;;;;;5083840;28;20496;-59
2022/04/24 06:17:49;;;;;;;34.05;4.10;;;13.60;75.90;;;;;;5084459;28;20866;-59
2022/04/24 06:20:15;;;;;;;35.33;4.35;;;13.60;75.90;;;;;;5051270;28;20036;-59
2022/04/24 06:22:42;;;;;;;30.80;4.85;;;13.60;75.90;;;;;;5083531;28;20538;-60
2022/04/24 06:25:08;;;;;;;29.42;4.18;;;13.60;76.00;;;;;;5065428;28;20055;-59
2022/04/24 06:27:33;;;;;;;29.45;4.32;;;13.60;75.90;;;;;;5086669;28;20028;-60
2022/04/24 06:29:59;;;;;;;21.80;3.03;;;13.60;75.80;;;;;;5066820;28;20032;-59
2022/04/24 06:32:28;;;;;;;26.00;3.45;;;13.60;75.90;;;;;;5084038;28;20072;-59
2022/04/24 06:34:53;;;;;;;14.93;3.03;;;13.70;75.90;;;;;;5084947;28;20483;-60
2022/04/24 06:37:19;;;;;;;27.15;5.22;;;13.60;75.80;;;;;;5050598;28;20066;-59
2022/04/24 06:39:44;;;;;;;17.92;3.88;;;13.70;76.30;;;;;;5084443;28;20128;-59
2022/04/24 06:42:10;;;;;;;18.48;3.83;;;13.70;76.40;;;;;;5083131;28;20036;-59
2022/04/24 06:44:36;;;;;;;21.08;3.97;;;13.70;76.60;;;;;;5085084;28;20012;-60
2022/04/24 06:47:01;;;;;;;26.55;3.42;;;13.70;76.40;;;;;;5083225;28;20043;-59
2022/04/24 06:49:27;;;;;;;23.33;4.13;;;13.70;76.40;;;;;;5082797;28;20495;-59
2022/04/24 06:51:52;;;;;;;23.80;4.00;;;13.70;76.30;;;;;;5084305;28;20062;-59
2022/04/24 06:54:18;;;;;;;26.63;4.22;;;13.70;76.20;;;;;;5084813;28;20058;-59
2022/04/24 06:56:43;;;;;;;27.80;4.10;;;13.70;76.10;;;;;;5085706;28;20123;-60
2022/04/24 06:59:09;;;;;;;16.63;3.75;;;13.70;76.00;;;;;;5084919;28;20131;-59
2022/04/24 07:01:34;;;;;;;21.75;3.85;;;13.70;76.00;;;;;;5083620;28;20081;-62
2022/04/24 07:04:00;;;;;;;19.73;3.78;;;13.80;76.20;;;;;;5083837;28;20054;-62
2022/04/24 07:06:25;;;;;;;18.23;3.17;;;13.80;76.10;;;;;;5066332;28;20201;-62
2022/04/24 07:08:51;;;;;;;19.27;3.72;;;13.80;75.90;;;;;;5065137;28;20031;-62
2022/04/24 07:11:17;;;;;;;27.65;4.18;;;13.80;75.70;;;;;;5064025;28;20028;-62
2022/04/24 07:13:44;;;;;;;31.08;4.65;;;13.80;75.90;;;;;;5084006;28;20042;-59
2022/04/24 07:16:09;;;;;;;30.52;3.80;;;13.80;76.00;;;;;;5066448;28;20028;-60
2022/04/24 07:18:35;;;;;;;15.98;3.63;;;13.90;76.10;;;;;;5085302;28;20454;-59
2022/04/24 07:21:02;;;;;;;25.60;3.88;;;13.90;75.90;;;;;;5085662;28;20107;-60
2022/04/24 07:23:28;;;;;;;31.15;3.92;;;13.80;75.80;;;;;;5084020;28;20024;-59
2022/04/24 07:25:54;;;;;;;16.38;3.35;;;13.90;75.70;;;;;;5083368;28;20032;-59
2022/04/24 07:28:19;;;;;;;21.83;3.45;;;13.90;75.60;;;;;;5065735;28;20036;-60
2022/04/24 07:30:45;;;;;;;29.23;4.78;;;13.90;75.60;;;;;;5083094;28;20047;-60
2022/04/24 07:33:11;;;;;;;18.05;3.33;;;13.90;75.50;;;;;;5080539;28;20404;-59
2022/04/24 07:35:37;;;;;;;22.52;3.33;;;13.90;75.50;;;;;;5046788;28;20099;-60
2022/04/24 07:38:02;;;;;;;15.10;3.00;;;13.90;75.40;;;;;;5067331;28;20032;-60
2022/04/24 07:40:30;;;;;;;15.55;2.97;;;14.00;75.40;;;;;;5085055;28;20711;-60
2022/04/24 07:42:57;;;;;;;27.23;3.42;;;14.00;75.30;;;;;;5067113;28;20024;-60
2022/04/24 07:45:27;;;;;;;11.93;2.90;;;14.00;75.20;;;;;;5050821;28;20164;-59
2022/04/24 07:47:54;;;;;;;18.55;3.08;;;14.00;75.20;;;;;;5082978;28;20122;-60
2022/04/24 07:50:21;;;;;;;17.98;3.00;;;14.10;75.10;;;;;;5064178;28;20107;-60
2022/04/24 12:59:59;;;;;;;244.93;27.13;;;17.20;76.30;;;;;;5070341;28;20117;-61
2022/04/24 13:02:26;;;;;;;282.27;28.88;;;17.20;76.30;;;;;;5055219;28;20485;-60
2022/04/24 13:04:52;;;;;;;298.45;30.50;;;17.20;76.30;;;;;;5040088;28;20055;-60
2022/04/24 13:07:17;;;;;;;262.63;30.08;;;17.20;76.10;;;;;;5057546;28;20123;-60
2022/04/24 13:09:43;;;;;;;286.25;33.83;;;17.20;75.90;;;;;;5042194;28;20111;-62
2022/04/24 13:12:11;;;;;;;266.00;29.70;;;17.20;76.10;;;;;;5077983;28;20047;-62
2022/04/24 13:14:37;;;;;;;250.80;27.15;;;17.20;76.50;;;;;;5079157;28;20114;-60
2022/04/24 13:19:47;;;;;;;257.40;28.27;;;17.20;76.60;;;;;;5069969;28;20063;-60
2022/04/24 13:22:12;;;;;;;268.90;28.70;;;17.30;76.60;;;;;;5059692;28;20422;-60
2022/04/24 13:24:38;;;;;;;222.65;25.92;;;17.30;76.50;;;;;;5058894;28;20107;-60
2022/04/24 13:27:04;;;;;;;253.43;27.60;;;17.30;76.60;;;;;;5055465;28;20520;-60
2022/04/24 13:29:30;;;;;;;265.55;27.38;;;17.30;76.90;;;;;;5063358;28;20039;-60
2022/04/24 13:31:55;;;;;;;270.23;30.65;;;17.20;76.80;;;;;;5055983;28;20032;-59
2022/04/24 13:34:21;;;;;;;194.63;26.10;;;17.30;77.00;;;;;;5053996;28;20089;-60
2022/04/24 13:36:46;;;;;;;243.68;28.73;;;17.30;77.20;;;;;;5074011;28;20503;-59
2022/04/24 13:39:12;;;;;;;284.33;32.92;;;17.30;77.20;;;;;;5073714;28;20491;-59
2022/04/24 13:41:38;;;;;;;255.05;29.67;;;17.30;77.60;;;;;;5055147;28;20161;-59
2022/04/24 13:44:04;;;;;;;268.70;29.77;;;17.30;78.10;;;;;;5050029;28;20181;-59
2022/04/24 13:46:31;;;;;;;236.48;26.67;;;17.30;77.90;;;;;;5063137;28;20058;-58
2022/04/24 13:48:56;;;;;;;253.07;27.30;;;17.30;77.80;;;;;;5023028;28;20128;-59
2022/04/24 13:51:22;;;;;;;230.48;25.63;;;17.30;77.50;;;;;;5050890;28;20124;-60
2022/04/24 13:53:48;;;;;;;256.30;27.55;;;17.30;78.00;;;;;;5074967;28;20028;-59
2022/04/24 13:56:13;;;;;;;239.07;26.23;;;17.30;77.70;;;;;;5075048;28;20030;-60
2022/04/24 13:58:39;;;;;;;236.65;26.58;;;17.30;77.50;;;;;;5077346;28;20058;-60
2022/04/24 14:01:06;;;;;;;240.77;27.90;;;17.30;77.80;;;;;;5042782;28;20546;-59
2022/04/24 14:03:32;;;;;;;296.17;30.90;;;17.30;78.10;;;;;;5067711;28;20024;-59
2022/04/24 14:05:57;;;;;;;274.95;32.08;;;17.30;79.10;;;;;;5033439;28;20033;-59
2022/04/24 14:08:26;;;;;;;230.00;26.27;;;17.30;78.50;;;;;;5070083;28;20063;-60
2022/04/24 14:10:51;;;;;;;251.98;28.63;;;17.30;78.40;;;;;;5059805;28;20161;-59
2022/04/24 14:13:17;;;;;;;256.52;29.30;;;17.30;78.20;;;;;;5059091;28;20437;-60
2022/04/24 14:15:42;;;;;;;249.13;28.45;;;17.30;78.30;;;;;;5042355;28;20771;-60
2022/04/24 14:18:08;;;;;;;215.30;25.92;;;17.30;78.30;;;;;;5074820;28;20036;-59
2022/04/24 14:20:34;;;;;;;273.25;28.33;;;17.30;78.30;;;;;;5074910;28;20138;-59
2022/04/24 14:22:59;;;;;;;218.60;26.58;;;17.30;79.00;;;;;;5082528;28;20074;-60
2022/04/24 14:25:25;;;;;;;188.40;24.65;;;17.20;78.60;;;;;;5044607;28;20093;-59
2022/04/24 14:27:51;;;;;;;193.00;23.00;;;17.20;78.10;;;;;;5047579;28;20029;-60
2022/04/24 14:30:16;;;;;;;246.65;25.42;;;17.20;78.40;;;;;;5063944;28;20025;-59
2022/04/24 14:32:42;;;;;;;185.50;24.90;;;17.10;78.30;;;;;;5041921;28;20594;-59
2022/04/24 14:35:08;;;;;;;222.32;27.15;;;17.10;78.30;;;;;;5054463;28;20136;-59
2022/04/24 14:37:34;;;;;;;214.43;24.70;;;17.10;78.70;;;;;;5054874;28;20127;-59
2022/04/24 14:40:01;;;;;;;195.15;23.65;;;17.00;79.00;;;;;;5065755;28;20036;-60
2022/04/24 14:42:26;;;;;;;186.85;22.35;;;17.00;78.90;;;;;;5062378;28;20031;-59
2022/04/24 14:44:52;;;;;;;190.00;19.83;;;17.00;78.70;;;;;;5057472;28;20080;-59
2022/04/24 14:55:49;;;;;;;179.15;20.00;;;16.90;78.70;;;;;;5051880;28;20531;-60
2022/04/24 14:58:19;;;;;;;175.60;19.85;;;16.90;78.90;;;;;;5055907;28;20036;-62
2022/04/24 15:00:47;;;;;;;200.23;21.83;;;16.80;78.90;;;;;;5041947;28;20054;-62
2022/04/24 15:03:13;;;;;;;195.52;21.88;;;16.80;79.00;;;;;;5059420;28;20508;-59
2022/04/24 15:05:41;;;;;;;241.50;26.55;;;16.80;79.20;;;;;;5036444;28;20546;-62
2022/04/24 15:08:07;;;;;;;227.23;26.75;;;16.80;80.40;;;;;;5059533;28;20068;-62
2022/04/24 15:10:33;;;;;;;202.77;22.52;;;16.80;80.60;;;;;;5040407;28;20025;-60
2022/04/24 15:12:59;;;;;;;258.48;26.70;;;16.80;80.50;;;;;;5057718;28;20032;-62
2022/04/24 15:15:25;;;;;;;225.27;27.48;;;16.80;81.10;;;;;;5010737;28;20441;-60
2022/04/24 15:17:50;;;;;;;223.23;27.73;;;16.80;81.00;;;;;;5060925;28;20035;-60
2022/04/24 15:20:16;;;;;;;260.05;29.70;;;16.80;80.90;;;;;;5044373;28;20111;-60
2022/04/24 15:22:42;;;;;;;205.60;22.13;;;16.70;80.70;;;;;;5040060;28;20016;-60
2022/04/24 15:25:08;;;;;;;208.65;22.65;;;16.80;81.00;;;;;;5040123;28;20025;-59
2022/04/24 15:27:34;;;;;;;188.40;22.55;;;16.70;81.20;;;;;;5043254;28;20491;-60
2022/04/24 15:29:59;;;;;;;187.50;20.58;;;16.70;81.00;;;;;;5061894;28;20110;-59
2022/04/24 15:32:25;;;;;;;151.63;17.98;;;16.70;80.60;;;;;;5062138;28;20037;-63
2022/04/24 15:34:50;;;;;;;190.68;19.73;;;16.70;80.50;;;;;;5039854;28;20067;-62
2022/04/24 15:37:17;;;;;;;219.27;25.55;;;16.70;80.80;;;;;;5056928;28;20029;-60
2022/04/24 15:39:43;;;;;;;170.23;21.30;;;16.70;80.70;;;;;;5041662;28;20017;-60
2022/04/24 15:42:09;;;;;;;187.55;21.95;;;16.70;80.40;;;;;;5038275;28;20032;-60
2022/04/24 15:47:21;;;;;;;212.32;23.63;;;16.70;81.90;;;;;;5045277;28;20094;-60
2022/04/24 15:49:47;;;;;;;197.05;23.60;;;16.60;81.70;;;;;;5059252;28;20033;-61
2022/04/24 15:52:13;;;;;;;263.70;27.23;;;16.60;81.60;;;;;;5030750;28;20067;-60
2022/04/24 15:54:38;;;;;;;272.83;28.48;;;16.60;82.00;;;;;;5010196;28;20067;-62
2022/04/24 15:57:04;;;;;;;178.75;20.75;;;16.60;81.90;;;;;;5037564;28;20457;-62
2022/04/24 15:59:29;;;;;;;173.68;20.88;;;16.60;81.80;;;;;;5055816;28;20020;-62
2022/04/24 16:01:55;;;;;;;226.07;24.58;;;16.50;81.40;;;;;;5071199;28;20052;-62
2022/04/24 16:04:20;;;;;;;190.45;23.13;;;16.50;81.50;;;;;;5062167;28;20123;-59
2022/04/24 16:06:46;;;;;;;181.45;20.90;;;16.50;81.50;;;;;;5077504;28;20478;-60
2022/04/24 16:09:11;;;;;;;221.38;22.60;;;16.50;82.00;;;;;;5078712;28;20592;-59
2022/04/24 16:11:37;;;;;;;199.90;23.05;;;16.50;82.40;;;;;;5061758;28;20032;-62
2022/04/24 16:14:03;;;;;;;166.32;21.13;;;16.50;82.70;;;;;;5055706;28;20070;-62
2022/04/24 16:16:28;;;;;;;201.50;25.67;;;16.50;83.00;;;;;;5024227;28;20082;-62
2022/04/24 16:18:54;;;;;;;196.65;19.95;;;16.40;84.00;;;;;;5043662;28;20036;-59
2022/04/24 16:21:20;;;;;;;183.20;21.58;;;16.40;83.20;;;;;;5027146;28;20067;-60
2022/04/24 16:23:45;;;;;;;207.32;23.15;;;16.40;83.30;;;;;;5040502;28;20078;-62
2022/04/24 16:26:11;;;;;;;195.23;20.80;;;16.40;84.10;;;;;;5082422;28;20036;-60
2022/04/24 16:28:37;;;;;;;165.95;17.33;;;16.30;83.20;;;;;;5080017;28;20044;-62
2022/04/24 16:31:02;;;;;;;140.65;16.52;;;16.30;82.60;;;;;;5076740;28;20028;-60
2022/04/24 16:33:28;;;;;;;143.75;16.95;;;16.20;82.40;;;;;;5042718;28;20028;-61
2022/04/24 16:35:53;;;;;;;156.43;17.60;;;16.20;82.50;;;;;;5055084;28;20028;-60
2022/04/24 16:38:19;;;;;;;534.08;46.00;;;16.20;82.40;;;;;;5035088;28;20064;-60
2022/04/24 16:40:46;;;;;;;143.43;16.30;;;16.20;82.30;;;;;;5053635;28;20062;-61
2022/04/24 16:43:11;;;;;;;131.93;15.50;;;16.20;82.60;;;;;;5060782;28;20135;-60
2022/04/24 16:45:37;;;;;;;142.07;16.67;;;16.20;82.40;;;;;;5077158;28;20696;-60
2022/04/24 16:48:02;;;;;;;132.38;14.95;;;16.20;82.90;;;;;;5055309;28;20116;-60
2022/04/24 16:58:46;;;;;;;108.25;13.55;;;16.10;82.50;;;;;;5077560;28;20075;-61
2022/04/24 17:01:13;;;;;;;96.13;11.48;;;16.00;82.30;;;;;;5034561;28;20215;-61
2022/04/24 17:03:38;;;;;;;97.03;11.73;;;16.00;82.20;;;;;;5036919;28;20492;-60
2022/04/24 17:06:04;;;;;;;101.38;12.18;;;16.00;82.30;;;;;;5052530;28;20037;-59
2022/04/24 17:08:31;;;;;;;77.78;10.85;;;15.90;82.30;;;;;;5056862;28;20036;-60
2022/04/24 17:10:57;;;;;;;100.88;13.27;;;15.90;82.30;;;;;;5057146;28;20016;-60
2022/04/24 17:13:23;;;;;;;119.15;13.55;;;15.90;83.00;;;;;;5035414;28;20763;-60
2022/04/24 17:15:51;;;;;;;93.60;11.13;;;15.90;82.60;;;;;;5021048;28;20610;-60
2022/04/24 17:18:17;;;;;;;100.10;11.80;;;15.80;82.40;;;;;;5057105;28;20084;-60
2022/04/24 17:20:43;;;;;;;109.03;12.85;;;15.80;82.60;;;;;;5036301;28;20115;-60
2022/04/24 17:23:09;;;;;;;109.18;11.48;;;15.80;82.70;;;;;;5038180;28;20480;-61
2022/04/24 17:25:35;;;;;;;102.15;12.52;;;15.80;82.60;;;;;;5054654;28;20105;-60
2022/04/24 17:28:00;;;;;;;122.30;11.90;;;15.80;82.60;;;;;;5058790;28;20484;-60
2022/04/24 17:30:26;;;;;;;95.95;12.15;;;15.80;83.10;;;;;;5033088;28;20032;-60
2022/04/24 17:32:51;;;;;;;122.15;13.60;;;15.70;83.00;;;;;;5022660;28;20694;-61
2022/04/24 17:35:19;;;;;;;95.05;12.70;;;15.80;83.10;;;;;;5034155;28;20528;-59
2022/04/24 17:37:45;;;;;;;109.00;11.32;;;15.70;83.10;;;;;;5057661;28;20059;-60
2022/04/24 17:40:10;;;;;;;129.10;14.98;;;15.70;83.10;;;;;;5056688;28;20746;-60
2022/04/24 17:42:36;;;;;;;103.72;11.13;;;15.70;83.50;;;;;;5058120;28;20028;-60
2022/04/24 17:45:04;;;;;;;113.70;12.48;;;15.60;83.10;;;;;;5033903;28;20020;-58
2022/04/24 17:47:29;;;;;;;123.80;12.18;;;15.60;83.40;;;;;;5040248;28;20037;-60
2022/04/24 17:49:55;;;;;;;154.15;14.52;;;15.60;83.20;;;;;;5052065;28;20024;-60
2022/04/24 17:52:20;;;;;;;105.97;11.45;;;15.60;83.20;;;;;;5058228;28;20499;-59
2022/04/24 17:54:48;;;;;;;104.43;10.52;;;15.50;83.20;;;;;;5060782;28;20176;-60